createdAt,value
2023-02-11T00:00:13.764Z,82.04
2023-02-11T00:02:40.369Z,82.09
2023-02-11T00:05:07.062Z,82.07
2023-02-11T00:07:35.355Z,82.64
2023-02-11T00:10:08.038Z,82.98
2023-02-11T00:12:36.237Z,83.02
2023-02-11T00:15:03.346Z,83.04
2023-02-11T00:17:29.970Z,82.76
2023-02-11T00:19:56.639Z,82.65
2023-02-11T00:22:23.666Z,82.27
2023-02-11T00:24:50.253Z,81.83
2023-02-11T00:27:16.782Z,81.58
2023-02-11T00:29:43.364Z,81.50
2023-02-11T00:32:10.779Z,81.38
2023-02-11T00:34:38.282Z,81.42
2023-02-11T00:37:05.581Z,81.09
2023-02-11T00:39:32.355Z,80.60
2023-02-11T00:41:58.988Z,80.95
2023-02-11T00:44:25.646Z,81.06
2023-02-11T00:46:52.208Z,81.07
2023-02-11T00:49:19.292Z,80.80
2023-02-11T00:51:45.941Z,80.58
2023-02-11T00:54:12.507Z,80.64
2023-02-11T00:56:39.156Z,80.92
2023-02-11T00:59:05.753Z,81.17
2023-02-11T01:01:32.402Z,81.55
2023-02-11T01:03:59.032Z,82.30
2023-02-11T01:06:26.597Z,82.79
2023-02-11T01:08:53.250Z,83.12
2023-02-11T01:11:21.910Z,83.68
2023-02-11T01:13:49.888Z,83.43
2023-02-11T01:16:17.138Z,83.41
2023-02-11T01:18:44.714Z,83.09
2023-02-11T01:21:11.658Z,83.00
2023-02-11T01:23:38.202Z,82.74
2023-02-11T01:26:05.145Z,82.71
2023-02-11T01:28:32.251Z,82.48
2023-02-11T01:31:00.955Z,82.55
2023-02-11T01:33:27.804Z,82.85
2023-02-11T01:35:54.447Z,82.89
2023-02-11T01:38:24.392Z,83.30
2023-02-11T01:40:53.288Z,82.93
2023-02-11T01:43:20.642Z,83.61
2023-02-11T01:45:47.271Z,84.01
2023-02-11T01:48:28.254Z,84.10
2023-02-11T01:51:02.841Z,84.14
2023-02-11T01:53:48.528Z,83.68
2023-02-11T01:56:37.124Z,84.03
2023-02-11T01:59:11.200Z,84.70
2023-02-11T02:01:40.569Z,84.45
2023-02-11T02:04:09.612Z,83.90
2023-02-11T02:06:44.223Z,83.75
2023-02-11T02:09:20.067Z,83.82
2023-02-11T02:11:46.751Z,83.55
2023-02-11T02:14:13.707Z,83.55
2023-02-11T02:16:40.427Z,83.20
2023-02-11T02:19:30.109Z,82.49
2023-02-11T02:22:14.374Z,82.06
2023-02-11T02:25:06.724Z,82.33
2023-02-11T02:27:40.441Z,82.32
2023-02-11T02:30:38.787Z,82.21
2023-02-11T02:33:22.377Z,82.46
2023-02-11T02:36:13.436Z,82.30
2023-02-11T02:38:53.352Z,81.66
2023-02-11T02:41:26.870Z,81.55
2023-02-11T02:43:54.053Z,81.95
2023-02-11T02:46:24.968Z,81.55
2023-02-11T02:48:53.706Z,81.39
2023-02-11T02:51:32.293Z,81.38
2023-02-11T02:54:14.084Z,81.60
2023-02-11T02:56:44.689Z,81.46
2023-02-11T02:59:49.582Z,81.12
2023-02-11T03:02:37.102Z,81.22
2023-02-11T03:05:15.730Z,80.90
2023-02-11T03:08:12.319Z,80.69
2023-02-11T03:10:43.914Z,80.70
2023-02-11T03:13:11.183Z,80.55
2023-02-11T03:15:47.722Z,80.50
2023-02-11T03:18:18.701Z,80.46
2023-02-11T03:20:50.760Z,80.73
2023-02-11T03:23:37.840Z,80.49
2023-02-11T03:26:38.049Z,80.51
2023-02-11T03:29:07.568Z,80.45
2023-02-11T03:31:55.511Z,80.34
2023-02-11T03:34:27.750Z,80.08
2023-02-11T03:37:00.362Z,80.13
2023-02-11T03:39:44.470Z,80.19
2023-02-11T03:42:13.492Z,80.31
2023-02-11T03:44:56.515Z,80.17
2023-02-11T03:47:27.475Z,80.08
2023-02-11T03:49:58.192Z,79.98
2023-02-11T03:52:26.342Z,79.93
2023-02-11T03:54:58.033Z,79.71
2023-02-11T03:57:24.607Z,79.77
2023-02-11T03:59:52.173Z,79.75
2023-02-11T04:02:19.869Z,79.67
2023-02-11T04:04:47.505Z,79.72
2023-02-11T04:07:14.160Z,79.81
2023-02-11T04:09:40.810Z,80.16
2023-02-11T04:12:07.705Z,80.27
2023-02-11T04:14:34.350Z,80.85
2023-02-11T04:17:00.922Z,80.19
2023-02-11T04:19:27.469Z,80.67
2023-02-11T04:21:54.033Z,81.06
2023-02-11T04:24:20.665Z,81.05
2023-02-11T04:26:47.248Z,81.54
2023-02-11T04:29:13.820Z,82.39
2023-02-11T04:31:40.497Z,81.17
2023-02-11T04:34:07.141Z,81.34
2023-02-11T04:36:33.697Z,81.51
2023-02-11T04:39:00.349Z,81.65
2023-02-11T04:41:26.914Z,81.68
2023-02-11T04:43:53.469Z,82.49
2023-02-11T04:46:20.037Z,82.05
2023-02-11T04:48:46.672Z,81.46
2023-02-11T04:51:13.379Z,81.27
2023-02-11T04:53:40.158Z,81.50
2023-02-11T04:56:07.018Z,82.42
2023-02-11T04:58:33.869Z,81.79
2023-02-11T05:01:12.382Z,82.38
2023-02-11T05:03:39.381Z,82.57
2023-02-11T05:06:06.511Z,82.62
2023-02-11T05:08:33.924Z,81.74
2023-02-11T05:11:02.248Z,81.18
2023-02-11T05:13:30.395Z,81.38
2023-02-11T05:15:57.005Z,80.88
2023-02-11T05:18:23.714Z,81.37
2023-02-11T05:20:50.264Z,81.27
2023-02-11T05:23:16.778Z,82.47
2023-02-11T05:25:43.341Z,81.51
2023-02-11T05:28:09.891Z,81.83
2023-02-11T05:30:36.589Z,82.00
2023-02-11T05:33:03.252Z,82.20
2023-02-11T05:35:29.806Z,81.94
2023-02-11T05:37:56.336Z,82.18
2023-02-11T05:40:22.912Z,82.51
2023-02-11T05:42:49.478Z,82.55
2023-02-11T05:45:16.046Z,83.24
2023-02-11T05:47:42.642Z,83.40
2023-02-11T05:50:09.466Z,84.13
2023-02-11T05:52:36.061Z,84.12
2023-02-11T05:55:02.847Z,84.32
2023-02-11T05:57:29.403Z,84.66
2023-02-11T05:59:55.952Z,84.69
2023-02-11T06:02:22.628Z,85.28
2023-02-11T06:04:49.204Z,84.26
2023-02-11T06:07:15.812Z,84.76
2023-02-11T06:09:42.456Z,84.77
2023-02-11T06:12:09.029Z,84.55
2023-02-11T06:14:35.570Z,84.98
2023-02-11T06:17:02.262Z,85.48
2023-02-11T06:19:29.128Z,86.15
2023-02-11T06:21:56.324Z,87.21
2023-02-11T06:24:47.766Z,87.69
2023-02-11T06:27:09.821Z,87.31
2023-02-11T06:29:36.413Z,87.42
2023-02-11T06:32:03.193Z,87.47
2023-02-11T06:34:29.900Z,87.35
2023-02-11T06:36:56.493Z,87.62
2023-02-11T06:39:23.063Z,88.03
2023-02-11T06:41:50.069Z,88.17
2023-02-11T06:44:16.613Z,88.47
2023-02-11T06:46:43.223Z,88.88
2023-02-11T06:49:09.992Z,88.95
2023-02-11T06:51:37.015Z,88.84
2023-02-11T06:54:05.877Z,88.13
2023-02-11T06:56:33.589Z,87.73
2023-02-11T06:59:00.260Z,87.32
2023-02-11T07:01:27.932Z,87.20
2023-02-11T07:03:54.870Z,87.13
2023-02-11T07:06:24.796Z,86.70
2023-02-11T07:08:51.399Z,86.35
2023-02-11T07:11:24.690Z,85.77
2023-02-11T07:13:53.249Z,86.02
2023-02-11T07:16:20.656Z,85.61
2023-02-11T07:18:48.706Z,85.29
2023-02-11T07:21:18.281Z,84.75
2023-02-11T07:23:45.073Z,84.31
2023-02-11T07:26:14.040Z,84.37
2023-02-11T07:28:41.158Z,84.33
2023-02-11T07:31:08.449Z,84.57
2023-02-11T07:33:36.839Z,84.04
2023-02-11T07:36:05.503Z,83.54
2023-02-11T07:38:33.302Z,83.32
2023-02-11T07:41:01.571Z,83.28
2023-02-11T07:43:28.642Z,82.06
2023-02-11T07:45:55.240Z,77.30
2023-02-11T07:48:21.880Z,73.75
2023-02-11T07:50:48.407Z,72.93
2023-02-11T07:53:14.971Z,70.44
2023-02-11T07:55:43.444Z,70.26
2023-02-11T07:58:10.034Z,69.98
2023-02-11T08:00:36.952Z,70.37
2023-02-11T08:03:03.930Z,70.58
2023-02-11T08:05:30.553Z,70.12
2023-02-11T08:07:57.070Z,70.06
2023-02-11T08:10:23.666Z,69.91
2023-02-11T08:12:50.210Z,69.54
2023-02-11T08:15:16.799Z,69.28
2023-02-11T08:17:43.348Z,67.58
2023-02-11T08:20:10.400Z,66.40
2023-02-11T08:22:37.052Z,67.17
2023-02-11T08:25:03.762Z,66.79
2023-02-11T08:27:31.106Z,66.15
2023-02-11T08:29:59.521Z,64.11
2023-02-11T08:32:26.801Z,63.90
2023-02-11T08:34:53.961Z,63.50
2023-02-11T08:37:20.765Z,62.37
2023-02-11T08:39:47.531Z,62.32
2023-02-11T08:42:15.627Z,62.32
2023-02-11T08:44:43.357Z,63.20
2023-02-11T08:47:10.009Z,62.30
2023-02-11T08:49:36.660Z,61.76
2023-02-11T08:52:04.234Z,60.83
2023-02-11T08:54:31.418Z,59.23
2023-02-11T08:56:58.600Z,59.97
2023-02-11T08:59:25.219Z,60.11
2023-02-11T09:01:51.832Z,59.99
2023-02-11T09:04:18.779Z,59.66
2023-02-11T09:06:45.677Z,60.25
2023-02-11T09:09:14.405Z,59.86
2023-02-11T09:11:42.322Z,59.93
2023-02-11T09:14:19.088Z,58.74
2023-02-11T09:16:45.864Z,58.67
2023-02-11T09:19:12.476Z,59.07
2023-02-11T09:21:40.290Z,57.30
2023-02-11T09:24:07.059Z,56.57
2023-02-11T09:26:35.632Z,56.01
2023-02-11T09:29:03.325Z,55.89
2023-02-11T09:31:32.654Z,54.08
2023-02-11T09:34:02.604Z,49.29
2023-02-11T09:36:35.012Z,49.87
2023-02-11T09:39:02.772Z,50.28
2023-02-11T09:41:50.768Z,47.73
2023-02-11T09:44:25.109Z,48.04
2023-02-11T09:47:22.602Z,47.57
2023-02-11T09:49:52.814Z,47.68
2023-02-11T09:52:45.110Z,47.59
2023-02-11T09:55:17.103Z,46.03
2023-02-11T09:57:43.677Z,45.53
2023-02-11T10:00:24.200Z,46.06
2023-02-11T10:03:15.556Z,45.25
2023-02-11T10:06:00.347Z,45.71
2023-02-11T10:08:49.150Z,46.13
2023-02-11T10:11:38.810Z,45.39
2023-02-11T10:14:36.298Z,45.31
2023-02-11T10:17:31.948Z,45.07
2023-02-11T10:20:19.632Z,46.16
2023-02-11T10:22:52.538Z,45.53
2023-02-11T10:25:34.601Z,45.54
2023-02-11T10:28:10.057Z,44.93
2023-02-11T10:31:06.998Z,44.14
2023-02-11T10:33:36.644Z,44.14
2023-02-11T10:36:04.702Z,43.65
2023-02-11T10:38:33.023Z,43.28
2023-02-11T10:41:00.186Z,41.48
2023-02-11T10:43:29.661Z,40.40
2023-02-11T10:45:57.433Z,40.07
2023-02-11T10:48:39.945Z,40.69
2023-02-11T10:51:28.368Z,40.94
2023-02-11T10:54:04.227Z,40.96
2023-02-11T10:56:34.660Z,40.33
2023-02-11T10:59:02.749Z,40.68
2023-02-11T11:01:53.599Z,40.57
2023-02-11T11:04:38.731Z,40.67
2023-02-11T11:07:17.285Z,41.01
2023-02-11T11:09:49.207Z,40.90
2023-02-11T11:12:33.044Z,41.15
2023-02-11T11:15:16.426Z,41.09
2023-02-11T11:17:45.296Z,41.51
2023-02-11T11:20:23.695Z,40.23
2023-02-11T11:22:52.509Z,40.20
2023-02-11T11:25:29.962Z,40.28
2023-02-11T11:28:00.837Z,39.97
2023-02-11T11:30:39.218Z,40.52
2023-02-11T11:33:20.297Z,39.95
2023-02-11T11:35:57.933Z,38.80
2023-02-11T11:38:24.669Z,37.13
2023-02-11T11:41:19.454Z,36.15
2023-02-11T11:44:13.467Z,35.48
2023-02-11T11:46:44.113Z,35.05
2023-02-11T11:49:29.878Z,33.55
2023-02-11T11:52:34.611Z,31.17
2023-02-11T11:55:22.989Z,32.34
2023-02-11T11:57:50.168Z,33.08
2023-02-11T12:00:44.093Z,33.62
2023-02-11T12:03:37.193Z,33.61
2023-02-11T12:06:22.443Z,33.28
2023-02-11T12:08:48.973Z,31.17
2023-02-11T12:11:31.309Z,31.99
2023-02-11T12:14:37.702Z,32.44
2023-02-11T12:17:14.350Z,33.27
2023-02-11T12:19:47.224Z,33.13
2023-02-11T12:22:25.907Z,33.94
2023-02-11T12:25:09.999Z,34.74
2023-02-11T12:27:54.941Z,34.63
2023-02-11T12:30:40.421Z,33.94
2023-02-11T12:33:22.749Z,33.34
2023-02-11T12:35:59.346Z,33.66
2023-02-11T12:38:34.805Z,34.34
2023-02-11T12:41:17.664Z,34.56
2023-02-11T12:43:45.061Z,33.34
2023-02-11T12:46:33.441Z,33.50
2023-02-11T12:49:35.504Z,34.09
2023-02-11T12:52:20.324Z,34.33
2023-02-11T12:55:15.621Z,34.44
2023-02-11T12:57:44.447Z,34.57
2023-02-11T13:00:18.485Z,34.55
2023-02-11T13:03:11.727Z,34.52
2023-02-11T13:05:44.467Z,34.57
2023-02-11T13:08:16.320Z,34.56
2023-02-11T13:10:47.919Z,34.47
2023-02-11T13:13:30.615Z,40.92
2023-02-11T13:16:06.167Z,31.23
2023-02-11T13:18:37.350Z,30.41
2023-02-11T13:21:13.002Z,29.31
2023-02-11T13:23:41.857Z,29.42
2023-02-11T13:26:26.933Z,29.82
2023-02-11T13:29:06.008Z,30.38
2023-02-11T13:31:32.815Z,31.15
2023-02-11T13:33:59.415Z,30.81
2023-02-11T13:36:28.651Z,31.01
2023-02-11T13:39:06.449Z,31.01
2023-02-11T13:41:39.530Z,29.28
2023-02-11T13:44:08.794Z,29.26
2023-02-11T13:46:54.196Z,30.11
2023-02-11T13:49:24.897Z,30.56
2023-02-11T13:51:52.940Z,31.41
2023-02-11T13:54:40.005Z,31.72
2023-02-11T13:57:27.977Z,32.45
2023-02-11T14:00:01.035Z,32.47
2023-02-11T14:02:45.945Z,32.53
2023-02-11T14:05:34.068Z,32.65
2023-02-11T14:08:28.347Z,33.00
2023-02-11T14:11:10.930Z,33.04
2023-02-11T14:14:17.836Z,33.41
2023-02-11T14:17:00.193Z,33.11
2023-02-11T14:19:34.928Z,33.21
2023-02-11T14:22:05.856Z,33.19
2023-02-11T14:24:32.331Z,33.42
2023-02-11T14:27:06.880Z,32.73
2023-02-11T14:29:38.666Z,32.61
2023-02-11T14:32:23.250Z,32.75
2023-02-11T14:35:15.382Z,32.31
2023-02-11T14:37:57.269Z,32.69
2023-02-11T14:40:34.951Z,32.76
2023-02-11T14:43:32.437Z,33.50
2023-02-11T14:46:03.004Z,33.51
2023-02-11T14:48:38.009Z,33.30
2023-02-11T14:51:16.260Z,33.90
2023-02-11T14:53:48.320Z,34.01
2023-02-11T14:56:27.911Z,33.90
2023-02-11T14:58:55.643Z,33.68
2023-02-11T15:01:30.210Z,33.73
2023-02-11T15:03:58.271Z,34.12
2023-02-11T15:06:30.752Z,34.19
2023-02-11T15:09:02.512Z,34.77
2023-02-11T15:11:32.535Z,34.25
2023-02-11T15:14:07.866Z,34.97
2023-02-11T15:16:35.398Z,35.22
2023-02-11T15:19:07.254Z,35.95
2023-02-11T15:21:35.704Z,35.90
2023-02-11T15:24:08.281Z,36.37
2023-02-11T15:26:34.877Z,36.60
2023-02-11T15:29:01.463Z,36.88
2023-02-11T15:31:28.612Z,37.26
2023-02-11T15:33:55.676Z,37.34
2023-02-11T15:36:28.449Z,37.48
2023-02-11T15:39:17.359Z,37.27
2023-02-11T15:41:44.581Z,37.84
2023-02-11T15:44:32.432Z,38.49
2023-02-11T15:46:59.733Z,38.82
2023-02-11T15:49:27.048Z,39.05
2023-02-11T15:51:57.176Z,39.15
2023-02-11T15:54:27.392Z,39.21
2023-02-11T15:57:01.513Z,39.93
2023-02-11T15:59:50.081Z,40.22
2023-02-11T16:02:27.706Z,40.29
2023-02-11T16:04:57.788Z,40.43
2023-02-11T16:07:47.384Z,40.59
2023-02-11T16:10:25.808Z,41.03
2023-02-11T16:13:19.989Z,40.97
2023-02-11T16:15:53.243Z,41.26
2023-02-11T16:18:39.322Z,41.77
2023-02-11T16:21:15.861Z,42.13
2023-02-11T16:23:48.938Z,42.29
2023-02-11T16:26:39.206Z,42.74
2023-02-11T16:29:10.505Z,43.27
2023-02-11T16:31:40.208Z,43.27
2023-02-11T16:34:25.502Z,43.41
2023-02-11T16:36:53.006Z,43.69
2023-02-11T16:39:23.756Z,43.08
2023-02-11T16:41:51.968Z,43.52
2023-02-11T16:44:19.130Z,43.77
2023-02-11T16:46:46.090Z,43.60
2023-02-11T16:49:24.005Z,43.86
2023-02-11T16:51:52.644Z,43.97
2023-02-11T16:54:20.103Z,44.85
2023-02-11T16:56:46.684Z,45.17
2023-02-11T16:59:13.294Z,44.96
2023-02-11T17:01:41.527Z,44.71
2023-02-11T17:04:16.525Z,44.86
2023-02-11T17:06:45.129Z,45.31
2023-02-11T17:09:24.321Z,44.88
2023-02-11T17:11:51.656Z,45.33
2023-02-11T17:14:19.219Z,44.99
2023-02-11T17:16:47.180Z,45.18
2023-02-11T17:19:16.684Z,45.20
2023-02-11T17:21:44.565Z,45.23
2023-02-11T17:24:11.726Z,45.14
2023-02-11T17:26:39.077Z,44.92
2023-02-11T17:29:07.244Z,44.41
2023-02-11T17:31:34.777Z,44.73
2023-02-11T17:34:01.658Z,45.30
2023-02-11T17:36:31.259Z,44.95
2023-02-11T17:38:58.743Z,44.44
2023-02-11T17:41:25.635Z,45.03
2023-02-11T17:43:52.394Z,45.32
2023-02-11T17:46:19.363Z,44.91
2023-02-11T17:48:46.071Z,44.93
2023-02-11T17:51:27.850Z,45.25
2023-02-11T17:53:56.753Z,45.37
2023-02-11T17:56:23.334Z,45.94
2023-02-11T17:58:50.280Z,46.16
2023-02-11T18:01:16.925Z,46.05
2023-02-11T18:03:43.501Z,46.74
2023-02-11T18:06:11.600Z,47.15
2023-02-11T18:08:38.566Z,47.62
2023-02-11T18:11:12.619Z,47.59
2023-02-11T18:13:39.162Z,47.29
2023-02-11T18:16:08.656Z,47.39
2023-02-11T18:18:35.565Z,47.63
2023-02-11T18:21:04.062Z,47.74
2023-02-11T18:23:30.705Z,48.11
2023-02-11T18:25:57.463Z,47.92
2023-02-11T18:28:24.110Z,47.90
2023-02-11T18:30:58.525Z,48.32
2023-02-11T18:33:25.356Z,48.46
2023-02-11T18:35:52.337Z,48.67
2023-02-11T18:38:19.608Z,48.60
2023-02-11T18:40:50.556Z,48.03
2023-02-11T18:43:17.882Z,47.23
2023-02-11T18:45:47.872Z,47.81
2023-02-11T18:48:15.095Z,48.00
2023-02-11T18:50:44.567Z,47.54
2023-02-11T18:53:12.848Z,47.85
2023-02-11T18:55:43.693Z,47.36
2023-02-11T18:58:10.382Z,47.50
2023-02-11T19:00:40.370Z,47.35
2023-02-11T19:03:07.157Z,47.22
2023-02-11T19:05:45.372Z,47.25
2023-02-11T19:08:13.169Z,47.30
2023-02-11T19:10:44.807Z,47.55
2023-02-11T19:13:12.107Z,48.05
2023-02-11T19:15:45.823Z,47.64
2023-02-11T19:18:14.507Z,48.52
2023-02-11T19:20:42.750Z,49.10
2023-02-11T19:23:09.992Z,48.42
2023-02-11T19:25:37.109Z,49.04
2023-02-11T19:28:03.978Z,48.94
2023-02-11T19:30:30.786Z,49.57
2023-02-11T19:32:57.847Z,49.69
2023-02-11T19:35:25.328Z,49.29
2023-02-11T19:37:52.102Z,50.17
2023-02-11T19:40:19.283Z,50.83
2023-02-11T19:42:45.936Z,50.76
2023-02-11T19:45:12.645Z,50.55
2023-02-11T19:47:39.299Z,50.78
2023-02-11T19:50:06.701Z,50.97
2023-02-11T19:52:33.331Z,50.79
2023-02-11T19:55:00.804Z,50.58
2023-02-11T19:57:27.432Z,51.09
2023-02-11T19:59:55.094Z,50.94
2023-02-11T20:02:21.923Z,50.39
2023-02-11T20:04:48.685Z,50.49
2023-02-11T20:07:15.268Z,50.68
2023-02-11T20:09:42.644Z,50.42
2023-02-11T20:12:09.716Z,50.90
2023-02-11T20:14:36.426Z,50.61
2023-02-11T20:17:03.021Z,50.73
2023-02-11T20:19:30.717Z,50.32
2023-02-11T20:21:57.475Z,50.88
2023-02-11T20:24:24.915Z,50.69
2023-02-11T20:26:55.601Z,50.66
2023-02-11T20:29:23.768Z,50.38
2023-02-11T20:31:51.018Z,50.76
2023-02-11T20:34:17.997Z,51.13
2023-02-11T20:36:51.722Z,51.44
2023-02-11T20:39:18.841Z,51.07
2023-02-11T20:41:46.198Z,51.84
2023-02-11T20:44:13.310Z,51.97
2023-02-11T20:46:43.230Z,52.11
2023-02-11T20:49:20.990Z,52.73
2023-02-11T20:51:47.933Z,53.16
2023-02-11T20:54:17.999Z,55.31
2023-02-11T20:56:47.843Z,58.36
2023-02-11T20:59:15.084Z,61.24
2023-02-11T21:01:44.093Z,60.22
2023-02-11T21:04:22.506Z,61.52
2023-02-11T21:06:52.283Z,61.63
2023-02-11T21:09:22.153Z,60.19
2023-02-11T21:11:51.613Z,59.58
2023-02-11T21:14:19.666Z,61.67
2023-02-11T21:16:47.317Z,62.28
2023-02-11T21:19:14.136Z,62.48
2023-02-11T21:21:41.040Z,61.10
2023-02-11T21:24:08.637Z,62.05
2023-02-11T21:26:35.785Z,62.54
2023-02-11T21:29:04.688Z,61.57
2023-02-11T21:31:32.987Z,62.63
2023-02-11T21:33:59.710Z,63.07
2023-02-11T21:36:28.720Z,63.02
2023-02-11T21:38:55.589Z,64.43
2023-02-11T21:41:22.901Z,63.74
2023-02-11T21:43:49.946Z,64.14
2023-02-11T21:46:18.077Z,63.75
2023-02-11T21:48:45.117Z,64.01
2023-02-11T21:51:15.123Z,64.72
2023-02-11T21:53:41.807Z,64.25
2023-02-11T21:56:17.105Z,65.34
2023-02-11T21:58:44.842Z,64.75
2023-02-11T22:01:17.729Z,65.33
2023-02-11T22:03:45.575Z,65.49
2023-02-11T22:06:21.098Z,65.27
2023-02-11T22:08:51.171Z,64.30
2023-02-11T22:11:18.219Z,66.79
2023-02-11T22:13:45.437Z,66.41
2023-02-11T22:16:14.977Z,65.72
2023-02-11T22:18:42.786Z,65.98
2023-02-11T22:21:12.233Z,66.18
2023-02-11T22:23:40.046Z,67.35
2023-02-11T22:26:09.867Z,67.37
2023-02-11T22:28:38.886Z,67.99
2023-02-11T22:31:05.627Z,68.26
2023-02-11T22:33:32.610Z,68.92
2023-02-11T22:36:01.138Z,68.89
2023-02-11T22:38:31.644Z,69.18
2023-02-11T22:40:59.857Z,68.52
2023-02-11T22:43:27.814Z,69.17
2023-02-11T22:45:56.445Z,69.07
2023-02-11T22:48:23.359Z,70.08
2023-02-11T22:50:49.982Z,70.71
2023-02-11T22:53:16.580Z,70.35
2023-02-11T22:55:43.193Z,69.88
2023-02-11T22:58:09.993Z,70.06
2023-02-11T23:00:40.310Z,71.74
2023-02-11T23:03:08.601Z,71.60
2023-02-11T23:05:39.839Z,71.19
2023-02-11T23:08:11.212Z,70.75
2023-02-11T23:10:39.715Z,71.75
2023-02-11T23:13:08.317Z,72.09
2023-02-11T23:15:39.788Z,72.31
2023-02-11T23:18:06.880Z,72.53
2023-02-11T23:20:39.445Z,72.19
2023-02-11T23:23:06.015Z,71.95
2023-02-11T23:25:33.648Z,72.69
2023-02-11T23:28:01.053Z,72.52
2023-02-11T23:30:28.626Z,72.55
2023-02-11T23:32:55.371Z,72.79
2023-02-11T23:35:23.196Z,74.21
2023-02-11T23:37:50.786Z,74.41
2023-02-11T23:40:19.056Z,74.29
2023-02-11T23:42:46.016Z,75.52
2023-02-11T23:45:12.610Z,75.38
2023-02-11T23:47:39.727Z,76.13
2023-02-11T23:50:10.550Z,75.83
2023-02-11T23:52:37.293Z,75.55
2023-02-11T23:55:04.266Z,74.79
2023-02-11T23:57:34.621Z,75.65
